Airfield :
LOGIN :

Register | Disclaimer

   EN    FR    IT 

 










Legend :    VFR   Marginal VFR   IFR   Intensive IFR   Very Intensive IFR
Visi :
Ceiling :
>= 8 km
>= 3000ft
5 to 8 km
1000 to 3000 ft
1500m to 5 km
500 to 1000 ft
800 to 1500m
200 to 500 ft
< 800m
< 200 ft
Symbols :   Thunderstorms  Fog  Heavy snow  Heavy precipitations  Wind > 20 kt
SIGMETs :     Misc.  Thunderstorms  Icing  Turbulence  Mountain Waves  Volcanic Ashes






- Airport Elevation : 55 ft
- IATA code : DSA


EGCN - Robin Hood Doncaster Sheffield

CURRENT METAR :
  • 270950Z 24008KT 9999 SCT041 07/06 Q1010

EXPIRED METARs :
  • 270920Z 25007KT 9000 NSC 06/06 Q1010
  • 270850Z 23005KT 9000 SCT039 03/03 Q1010
  • 270820Z 24004KT 9999 FEW028 BKN037 05/05 Q1010
  • 270750Z 25002KT 9000 BKN038 06/06 Q1010
  • 270720Z 22004KT 7000 SCT015 OVC041 03/03 Q1010

TAF TAF EGCN
Valid from the 27 at 06:00 until the 28 at 06:00 UTC


270458Z 2706/2806 25006KT 9999 SCT040
TEMPO 2706/2710 8000 BKN014
PROB30
TEMPO 2706/2710 4000 BR BKN008
PROB30
TEMPO 2715/2723 8000
BECMG 2720/2723 BKN012
TEMPO 2723/2806 6000 RA BKN008
BECMG 2800/2803 10010KT
PROB30
TEMPO 2800/2806 3000 RADZ BR BKN003



MET'MAP, your aeronautical weather chart ! - Copyright ORBIFLY December 2007 - Disclaimer

ORBIFLY MET'MAP TEAM :

Programming & Development : Alexandra Zaïnal
Concept & original design : Baudouin d'Aumeries
Assistance for programming : Marc-Olivier Méhu
Technical & hardware support : Manuel Goepfert

Contact : metmap@orbifly.com




SOURCES & CREDITS :

   NOAA